Flight Track Log - Related Links

Times and Time Zones

All times are in EDT time to prevent confusion due to time zone crossing. See the N447ND flight status page for this flight to view local times or setup timezone preferences in your user account.

Time Position Orientation Groundspeed Altitude Reporting Facility
EDT Latitude Longitude Course Direction KTS MPH feet Rate Location/Type
Tue 01:35:00 PM 28.5630 -81.9531 127° Southeast  Level Estimated
Tue 01:36:00 PM 28.5429 -81.9227 127° Southeast  Level Estimated
Tue 01:37:00 PM 28.5228 -81.8924 127° Southeast  Level Estimated
Tue 01:38:00 PM 28.5027 -81.8621 127° Southeast  Level Estimated
Tue 01:39:00 PM 28.4825 -81.8317 127° Southeast  Level Estimated
Tue 01:40:00 PM 28.4624 -81.8014 127° Southeast  Level Estimated
Tue 01:41:00 PM 28.4423 -81.7711 127° Southeast  Level Estimated
Tue 01:42:00 PM 28.4222 -81.7408 127° Southeast  Level Estimated
Tue 01:43:00 PM 28.4020 -81.7106 127° Southeast  Level Estimated
Tue 01:44:00 PM 28.3819 -81.6803 127° Southeast  Level Estimated
Tue 01:45:00 PM 28.3617 -81.6500 127° Southeast  Level Estimated
Tue 01:46:00 PM 28.3416 -81.6198 127° Southeast  Level Estimated
Tue 01:47:00 PM 28.3214 -81.5896 127° Southeast  Level Estimated
Tue 01:48:00 PM 28.3012 -81.5594 127° Southeast  Level Estimated
Tue 01:49:00 PM 28.2810 -81.5292 127° Southeast  Level Estimated
Tue 01:50:00 PM 28.2608 -81.4990 127° Southeast  Level Estimated
Tue 01:51:00 PM 28.2406 -81.4688 127° Southeast  Level Estimated
Tue 01:52:00 PM 28.2204 -81.4386 127° Southeast  Level Estimated
Tue 01:53:00 PM 28.2002 -81.4084 127° Southeast  Level Estimated
Tue 01:54:00 PM 28.1800 -81.3783 127° Southeast  Level Estimated
Tue 01:55:00 PM 28.1598 -81.3482 127° Southeast  Level Estimated
Tue 01:56:00 PM 28.1395 -81.3180 127° Southeast  Level Estimated
Tue 01:57:00 PM 28.1193 -81.2879 127° Southeast  Level Estimated
Tue 01:58:00 PM 28.0991 -81.2578 127° Southeast  Level Estimated
Tue 01:59:00 PM 28.0788 -81.2277 127° Southeast  Level Estimated
Tue 02:00:00 PM 28.0586 -81.1976 127° Southeast  Level Estimated
Tue 02:01:00 PM 28.0383 -81.1676 127° Southeast  Level Estimated
Tue 02:02:00 PM 28.0180 -81.1375 127° Southeast  Level Estimated
Tue 02:03:00 PM 27.9977 -81.1075 127° Southeast  Level Estimated
Tue 02:04:00 PM 27.9775 -81.0774 127° Southeast  Level Estimated
Tue 02:05:00 PM 27.9572 -81.0474 127° Southeast  Level Estimated
Tue 02:06:00 PM 27.9369 -81.0174 127° Southeast  Level Estimated
Tue 02:07:00 PM 27.9166 -80.9874 127° Southeast  Level Estimated
Tue 02:08:00 PM 27.8963 -80.9574 127° Southeast  Level Estimated
Tue 02:09:00 PM 27.8759 -80.9274 127° Southeast  Level Estimated
Tue 02:10:00 PM 27.8556 -80.8975 127° Southeast  Level Estimated
Tue 02:11:00 PM 27.8353 -80.8675 127° Southeast  Level Estimated
Tue 02:12:00 PM 27.8152 -80.8379 128° Southeast  Level Estimated
Tue 02:13:00 PM 27.7951 -80.8083 128° Southeast  Level Estimated
Tue 02:14:00 PM 27.7750 -80.7788 128° Southeast  Level Estimated
Tue 02:14:12 PM 27.1425 -81.0906 128° Southeast 97 112 2,600  Level Miami Center
Tue 02:15:00 PM 27.7549 -80.7492 128° Southeast  Level Estimated
Tue 02:15:12 PM 27.1536 -81.0653 64° Northeast 92 106 2,300  Level Miami Center
Tue 02:16:00 PM 27.7348 -80.7197 128° Southeast  Level Estimated
Tue 02:16:12 PM 27.1628 -81.0378 69° East 92 106 2,100  Level Miami Center
Tue 02:17:00 PM 27.7147 -80.6902 128° Southeast  Level Estimated
Tue 02:17:12 PM 27.1803 -81.0103 54° Northeast 98 113 2,100  Level Miami Center
Tue 02:18:00 PM 27.6946 -80.6607 128° Southeast  Level Estimated
Tue 02:18:12 PM 27.1956 -80.9853 56° Northeast 98 113 2,100  Level Miami Center
Tue 02:19:00 PM 27.6744 -80.6312 128° Southeast  Level Estimated
Tue 02:19:12 PM 27.2089 -80.9622 57° Northeast 98 113 2,100  Level Miami Center
Tue 02:20:12 PM 27.2242 -80.9372 55° Northeast 98 113 2,100  Level Miami Center
Tue 02:21:12 PM 27.2397 -80.9075 60° Northeast 98 113 2,100  Level Miami Center
Tue 02:22:12 PM 27.2528 -80.8797 62° Northeast 93 107 2,100  Level Miami Center
Tue 02:23:12 PM 27.2661 -80.8522 61° Northeast 98 113 2,100  Level Miami Center
Tue 02:24:12 PM 27.2794 -80.8294 57° Northeast 98 113 2,100  Level Miami Center
Tue 02:25:12 PM 27.2925 -80.8017 62° Northeast 98 113 2,100  Level Miami Center
Tue 02:26:12 PM 27.3081 -80.7719 59° Northeast 98 113 2,100 -50 Level Miami Center
Tue 02:27:12 PM 27.3233 -80.7444 58° Northeast 98 113 2,000  Descending Miami Center
Tue 02:28:12 PM 27.3428 -80.7264 40° Northeast 98 113 2,100 50 Climbing Miami Center
Tue 02:29:12 PM 27.3661 -80.7061 38° Northeast 98 113 2,100  Level Miami Center
Tue 02:30:12 PM 27.3897 -80.6858 37° Northeast 93 107 2,100  Level Miami Center

Login

Don't have an account? Register now (free) for customized features, flight alerts, and more!